sensor_id;sensor_type;location;lat;lon;timestamp;P1;durP1;ratioP1;P2;durP2;ratioP2
15116;SDS011;7659;51.038;13.786;2023-12-07T00:00:22;22.27;;;16.85;;
15116;SDS011;7659;51.038;13.786;2023-12-07T00:02:48;23.30;;;16.15;;
15116;SDS011;7659;51.038;13.786;2023-12-07T00:05:13;24.35;;;17.58;;
15116;SDS011;7659;51.038;13.786;2023-12-07T00:07:39;21.00;;;16.30;;
15116;SDS011;7659;51.038;13.786;2023-12-07T00:10:04;19.35;;;15.05;;
15116;SDS011;7659;51.038;13.786;2023-12-07T00:12:30;21.15;;;15.85;;
15116;SDS011;7659;51.038;13.786;2023-12-07T00:14:56;18.40;;;15.18;;
15116;SDS011;7659;51.038;13.786;2023-12-07T00:17:22;24.55;;;16.70;;
15116;SDS011;7659;51.038;13.786;2023-12-07T00:19:50;18.95;;;14.88;;
15116;SDS011;7659;51.038;13.786;2023-12-07T00:22:15;19.00;;;14.98;;
15116;SDS011;7659;51.038;13.786;2023-12-07T00:24:40;20.20;;;14.75;;
15116;SDS011;7659;51.038;13.786;2023-12-07T00:27:06;19.90;;;15.82;;
15116;SDS011;7659;51.038;13.786;2023-12-07T00:29:32;22.67;;;16.10;;
15116;SDS011;7659;51.038;13.786;2023-12-07T00:31:57;19.85;;;15.07;;
15116;SDS011;7659;51.038;13.786;2023-12-07T00:34:23;20.75;;;15.35;;
15116;SDS011;7659;51.038;13.786;2023-12-07T00:36:48;21.08;;;16.13;;
15116;SDS011;7659;51.038;13.786;2023-12-07T00:39:14;21.08;;;15.80;;
15116;SDS011;7659;51.038;13.786;2023-12-07T00:41:39;19.20;;;15.38;;
15116;SDS011;7659;51.038;13.786;2023-12-07T00:44:05;20.58;;;15.75;;
15116;SDS011;7659;51.038;13.786;2023-12-07T00:46:31;22.17;;;16.83;;
15116;SDS011;7659;51.038;13.786;2023-12-07T00:48:56;21.02;;;16.67;;
15116;SDS011;7659;51.038;13.786;2023-12-07T00:51:22;20.40;;;16.02;;
15116;SDS011;7659;51.038;13.786;2023-12-07T00:53:47;21.55;;;16.30;;
15116;SDS011;7659;51.038;13.786;2023-12-07T00:56:12;20.65;;;15.40;;
15116;SDS011;7659;51.038;13.786;2023-12-07T00:58:38;21.42;;;16.65;;
15116;SDS011;7659;51.038;13.786;2023-12-07T01:01:03;22.67;;;17.00;;
15116;SDS011;7659;51.038;13.786;2023-12-07T01:03:29;19.80;;;15.77;;
15116;SDS011;7659;51.038;13.786;2023-12-07T01:05:55;22.77;;;16.55;;
15116;SDS011;7659;51.038;13.786;2023-12-07T01:08:20;22.52;;;16.13;;
15116;SDS011;7659;51.038;13.786;2023-12-07T01:10:46;24.35;;;17.23;;
15116;SDS011;7659;51.038;13.786;2023-12-07T01:13:11;22.10;;;16.40;;
15116;SDS011;7659;51.038;13.786;2023-12-07T01:15:37;24.25;;;15.70;;
15116;SDS011;7659;51.038;13.786;2023-12-07T01:18:02;22.13;;;16.40;;
15116;SDS011;7659;51.038;13.786;2023-12-07T01:20:28;25.85;;;17.60;;
15116;SDS011;7659;51.038;13.786;2023-12-07T01:22:53;31.83;;;16.58;;
15116;SDS011;7659;51.038;13.786;2023-12-07T01:25:19;23.90;;;16.95;;
15116;SDS011;7659;51.038;13.786;2023-12-07T01:27:47;27.88;;;16.85;;
15116;SDS011;7659;51.038;13.786;2023-12-07T01:30:13;29.25;;;17.85;;
15116;SDS011;7659;51.038;13.786;2023-12-07T01:32:39;27.40;;;17.95;;
15116;SDS011;7659;51.038;13.786;2023-12-07T01:35:04;27.23;;;17.75;;
15116;SDS011;7659;51.038;13.786;2023-12-07T01:37:30;25.27;;;16.85;;
15116;SDS011;7659;51.038;13.786;2023-12-07T01:39:55;25.92;;;18.25;;
15116;SDS011;7659;51.038;13.786;2023-12-07T01:42:21;28.05;;;18.98;;
15116;SDS011;7659;51.038;13.786;2023-12-07T01:44:46;26.75;;;16.77;;
15116;SDS011;7659;51.038;13.786;2023-12-07T01:47:12;29.27;;;18.75;;
15116;SDS011;7659;51.038;13.786;2023-12-07T01:49:37;27.83;;;18.75;;
15116;SDS011;7659;51.038;13.786;2023-12-07T01:52:03;29.92;;;19.48;;
15116;SDS011;7659;51.038;13.786;2023-12-07T01:54:29;28.13;;;18.60;;
15116;SDS011;7659;51.038;13.786;2023-12-07T01:56:54;28.92;;;18.95;;
15116;SDS011;7659;51.038;13.786;2023-12-07T01:59:21;29.83;;;19.08;;
15116;SDS011;7659;51.038;13.786;2023-12-07T02:01:47;30.38;;;18.13;;
15116;SDS011;7659;51.038;13.786;2023-12-07T02:04:12;30.50;;;18.95;;
15116;SDS011;7659;51.038;13.786;2023-12-07T02:06:38;29.35;;;19.15;;
15116;SDS011;7659;51.038;13.786;2023-12-07T02:09:04;32.83;;;20.40;;
15116;SDS011;7659;51.038;13.786;2023-12-07T02:11:29;32.42;;;19.35;;
15116;SDS011;7659;51.038;13.786;2023-12-07T02:13:54;31.80;;;19.13;;
15116;SDS011;7659;51.038;13.786;2023-12-07T02:16:38;28.80;;;17.88;;
15116;SDS011;7659;51.038;13.786;2023-12-07T02:19:23;30.77;;;19.45;;
15116;SDS011;7659;51.038;13.786;2023-12-07T02:21:52;31.67;;;19.52;;
15116;SDS011;7659;51.038;13.786;2023-12-07T02:24:21;30.55;;;19.40;;
15116;SDS011;7659;51.038;13.786;2023-12-07T02:26:50;29.88;;;18.67;;
15116;SDS011;7659;51.038;13.786;2023-12-07T02:29:16;30.98;;;18.75;;
15116;SDS011;7659;51.038;13.786;2023-12-07T02:31:41;29.33;;;18.83;;
15116;SDS011;7659;51.038;13.786;2023-12-07T02:34:07;28.85;;;18.48;;
15116;SDS011;7659;51.038;13.786;2023-12-07T02:36:32;32.20;;;19.73;;
15116;SDS011;7659;51.038;13.786;2023-12-07T02:38:59;28.35;;;18.08;;
15116;SDS011;7659;51.038;13.786;2023-12-07T02:41:27;31.58;;;19.75;;
15116;SDS011;7659;51.038;13.786;2023-12-07T02:43:53;31.40;;;18.33;;
15116;SDS011;7659;51.038;13.786;2023-12-07T02:46:19;30.35;;;18.70;;
15116;SDS011;7659;51.038;13.786;2023-12-07T02:48:44;27.35;;;17.92;;
15116;SDS011;7659;51.038;13.786;2023-12-07T02:51:10;30.85;;;19.23;;
15116;SDS011;7659;51.038;13.786;2023-12-07T02:53:35;28.45;;;18.20;;
15116;SDS011;7659;51.038;13.786;2023-12-07T02:56:00;28.02;;;17.52;;
15116;SDS011;7659;51.038;13.786;2023-12-07T02:58:26;28.13;;;18.40;;
15116;SDS011;7659;51.038;13.786;2023-12-07T03:00:51;31.45;;;18.95;;
15116;SDS011;7659;51.038;13.786;2023-12-07T03:03:17;29.40;;;18.55;;
15116;SDS011;7659;51.038;13.786;2023-12-07T03:05:42;28.52;;;18.42;;
15116;SDS011;7659;51.038;13.786;2023-12-07T03:08:08;28.00;;;17.83;;
15116;SDS011;7659;51.038;13.786;2023-12-07T03:10:33;26.95;;;17.98;;
15116;SDS011;7659;51.038;13.786;2023-12-07T03:12:58;28.92;;;18.63;;
15116;SDS011;7659;51.038;13.786;2023-12-07T03:15:24;29.65;;;18.85;;
15116;SDS011;7659;51.038;13.786;2023-12-07T03:17:50;26.58;;;16.95;;
15116;SDS011;7659;51.038;13.786;2023-12-07T03:20:15;26.38;;;18.23;;
15116;SDS011;7659;51.038;13.786;2023-12-07T03:22:42;25.08;;;16.13;;
15116;SDS011;7659;51.038;13.786;2023-12-07T03:25:07;27.23;;;18.25;;
15116;SDS011;7659;51.038;13.786;2023-12-07T03:27:33;29.67;;;18.55;;
15116;SDS011;7659;51.038;13.786;2023-12-07T03:29:58;25.25;;;17.38;;
15116;SDS011;7659;51.038;13.786;2023-12-07T03:32:24;27.00;;;17.55;;
15116;SDS011;7659;51.038;13.786;2023-12-07T03:34:49;25.15;;;17.58;;
15116;SDS011;7659;51.038;13.786;2023-12-07T03:37:15;24.65;;;17.27;;
15116;SDS011;7659;51.038;13.786;2023-12-07T03:39:40;28.13;;;17.63;;
15116;SDS011;7659;51.038;13.786;2023-12-07T03:42:05;26.08;;;17.25;;
15116;SDS011;7659;51.038;13.786;2023-12-07T03:44:31;26.20;;;17.67;;
15116;SDS011;7659;51.038;13.786;2023-12-07T03:46:56;28.83;;;18.55;;
15116;SDS011;7659;51.038;13.786;2023-12-07T03:49:22;27.58;;;17.83;;
15116;SDS011;7659;51.038;13.786;2023-12-07T03:51:47;26.27;;;17.45;;
15116;SDS011;7659;51.038;13.786;2023-12-07T03:54:13;23.85;;;17.15;;
15116;SDS011;7659;51.038;13.786;2023-12-07T03:56:38;28.17;;;18.02;;
15116;SDS011;7659;51.038;13.786;2023-12-07T03:59:06;24.27;;;17.25;;
15116;SDS011;7659;51.038;13.786;2023-12-07T04:01:31;25.08;;;18.25;;
15116;SDS011;7659;51.038;13.786;2023-12-07T04:03:57;26.40;;;16.88;;
15116;SDS011;7659;51.038;13.786;2023-12-07T04:06:23;26.55;;;17.00;;
15116;SDS011;7659;51.038;13.786;2023-12-07T04:08:48;27.98;;;18.50;;
15116;SDS011;7659;51.038;13.786;2023-12-07T04:11:14;24.90;;;17.55;;
15116;SDS011;7659;51.038;13.786;2023-12-07T04:13:40;26.02;;;18.52;;
15116;SDS011;7659;51.038;13.786;2023-12-07T04:16:06;25.73;;;17.67;;
15116;SDS011;7659;51.038;13.786;2023-12-07T04:18:32;25.67;;;17.75;;
15116;SDS011;7659;51.038;13.786;2023-12-07T04:20:57;27.52;;;18.90;;
15116;SDS011;7659;51.038;13.786;2023-12-07T04:23:23;25.52;;;17.85;;
15116;SDS011;7659;51.038;13.786;2023-12-07T04:25:49;25.63;;;18.02;;
15116;SDS011;7659;51.038;13.786;2023-12-07T04:28:14;28.02;;;19.23;;
15116;SDS011;7659;51.038;13.786;2023-12-07T04:30:40;27.30;;;18.85;;
15116;SDS011;7659;51.038;13.786;2023-12-07T04:33:05;26.02;;;18.75;;
15116;SDS011;7659;51.038;13.786;2023-12-07T04:35:31;26.15;;;17.67;;
15116;SDS011;7659;51.038;13.786;2023-12-07T04:37:57;25.55;;;17.80;;
15116;SDS011;7659;51.038;13.786;2023-12-07T04:40:23;23.20;;;16.98;;
15116;SDS011;7659;51.038;13.786;2023-12-07T04:42:49;26.55;;;18.25;;
15116;SDS011;7659;51.038;13.786;2023-12-07T04:45:15;27.45;;;19.48;;
15116;SDS011;7659;51.038;13.786;2023-12-07T04:47:40;28.67;;;19.25;;
15116;SDS011;7659;51.038;13.786;2023-12-07T04:50:06;29.85;;;18.95;;
15116;SDS011;7659;51.038;13.786;2023-12-07T04:52:32;24.67;;;18.15;;
15116;SDS011;7659;51.038;13.786;2023-12-07T04:54:58;26.30;;;18.55;;
15116;SDS011;7659;51.038;13.786;2023-12-07T04:57:24;28.20;;;19.20;;
15116;SDS011;7659;51.038;13.786;2023-12-07T04:59:49;26.30;;;18.88;;
15116;SDS011;7659;51.038;13.786;2023-12-07T05:02:15;31.27;;;19.85;;
15116;SDS011;7659;51.038;13.786;2023-12-07T05:04:41;30.17;;;19.70;;
15116;SDS011;7659;51.038;13.786;2023-12-07T05:07:07;27.80;;;19.17;;
15116;SDS011;7659;51.038;13.786;2023-12-07T05:09:32;29.27;;;18.80;;
15116;SDS011;7659;51.038;13.786;2023-12-07T05:11:58;29.23;;;19.35;;
15116;SDS011;7659;51.038;13.786;2023-12-07T05:14:23;28.60;;;19.48;;
15116;SDS011;7659;51.038;13.786;2023-12-07T05:16:49;28.50;;;19.00;;
15116;SDS011;7659;51.038;13.786;2023-12-07T05:19:21;26.38;;;18.17;;
15116;SDS011;7659;51.038;13.786;2023-12-07T05:21:46;27.92;;;19.35;;
15116;SDS011;7659;51.038;13.786;2023-12-07T05:24:12;27.75;;;19.80;;
15116;SDS011;7659;51.038;13.786;2023-12-07T05:26:38;28.98;;;20.25;;
15116;SDS011;7659;51.038;13.786;2023-12-07T05:29:03;29.77;;;19.75;;
15116;SDS011;7659;51.038;13.786;2023-12-07T05:31:29;27.30;;;19.33;;
15116;SDS011;7659;51.038;13.786;2023-12-07T05:33:55;30.25;;;21.00;;
15116;SDS011;7659;51.038;13.786;2023-12-07T05:36:20;28.60;;;19.95;;
15116;SDS011;7659;51.038;13.786;2023-12-07T05:38:46;27.25;;;19.73;;
15116;SDS011;7659;51.038;13.786;2023-12-07T05:41:11;25.10;;;18.17;;
15116;SDS011;7659;51.038;13.786;2023-12-07T05:43:40;30.58;;;19.90;;
15116;SDS011;7659;51.038;13.786;2023-12-07T05:46:05;32.10;;;20.95;;
15116;SDS011;7659;51.038;13.786;2023-12-07T05:48:31;29.80;;;19.17;;
15116;SDS011;7659;51.038;13.786;2023-12-07T05:50:56;26.63;;;19.02;;
15116;SDS011;7659;51.038;13.786;2023-12-07T05:53:22;31.38;;;21.00;;
15116;SDS011;7659;51.038;13.786;2023-12-07T05:55:47;34.30;;;23.50;;
15116;SDS011;7659;51.038;13.786;2023-12-07T05:58:13;33.15;;;20.05;;
15116;SDS011;7659;51.038;13.786;2023-12-07T06:00:38;34.05;;;22.25;;
15116;SDS011;7659;51.038;13.786;2023-12-07T06:03:05;31.27;;;22.75;;
15116;SDS011;7659;51.038;13.786;2023-12-07T06:05:30;32.83;;;22.27;;
15116;SDS011;7659;51.038;13.786;2023-12-07T06:07:56;35.95;;;23.98;;
15116;SDS011;7659;51.038;13.786;2023-12-07T06:10:21;35.38;;;24.65;;
15116;SDS011;7659;51.038;13.786;2023-12-07T06:12:47;35.05;;;24.33;;
15116;SDS011;7659;51.038;13.786;2023-12-07T06:15:12;35.85;;;23.05;;
15116;SDS011;7659;51.038;13.786;2023-12-07T06:17:38;40.45;;;25.67;;
15116;SDS011;7659;51.038;13.786;2023-12-07T06:20:04;37.85;;;24.90;;
15116;SDS011;7659;51.038;13.786;2023-12-07T06:22:30;35.30;;;24.08;;
15116;SDS011;7659;51.038;13.786;2023-12-07T06:24:55;37.17;;;25.88;;
15116;SDS011;7659;51.038;13.786;2023-12-07T06:27:21;33.13;;;22.17;;
15116;SDS011;7659;51.038;13.786;2023-12-07T06:29:46;31.08;;;21.63;;
15116;SDS011;7659;51.038;13.786;2023-12-07T06:32:12;35.70;;;22.83;;
15116;SDS011;7659;51.038;13.786;2023-12-07T06:34:40;35.72;;;24.17;;
15116;SDS011;7659;51.038;13.786;2023-12-07T06:37:06;33.92;;;23.15;;
15116;SDS011;7659;51.038;13.786;2023-12-07T06:39:32;33.67;;;21.90;;
15116;SDS011;7659;51.038;13.786;2023-12-07T06:41:57;30.85;;;21.42;;
15116;SDS011;7659;51.038;13.786;2023-12-07T06:44:25;34.53;;;23.52;;
15116;SDS011;7659;51.038;13.786;2023-12-07T06:46:50;30.20;;;21.42;;
15116;SDS011;7659;51.038;13.786;2023-12-07T06:49:16;36.58;;;23.33;;
15116;SDS011;7659;51.038;13.786;2023-12-07T06:51:41;35.22;;;23.25;;
15116;SDS011;7659;51.038;13.786;2023-12-07T06:54:06;41.85;;;26.00;;
15116;SDS011;7659;51.038;13.786;2023-12-07T06:56:32;43.38;;;28.15;;
15116;SDS011;7659;51.038;13.786;2023-12-07T06:58:57;41.15;;;26.95;;
15116;SDS011;7659;51.038;13.786;2023-12-07T07:01:23;40.55;;;26.92;;
15116;SDS011;7659;51.038;13.786;2023-12-07T07:03:48;34.17;;;23.77;;
15116;SDS011;7659;51.038;13.786;2023-12-07T07:06:14;35.53;;;23.92;;
15116;SDS011;7659;51.038;13.786;2023-12-07T07:08:39;44.90;;;26.25;;
15116;SDS011;7659;51.038;13.786;2023-12-07T07:11:09;37.10;;;24.20;;
15116;SDS011;7659;51.038;13.786;2023-12-07T07:13:36;38.03;;;25.30;;
15116;SDS011;7659;51.038;13.786;2023-12-07T07:16:02;41.33;;;24.95;;
15116;SDS011;7659;51.038;13.786;2023-12-07T07:18:28;43.10;;;24.52;;
15116;SDS011;7659;51.038;13.786;2023-12-07T07:20:54;37.05;;;24.38;;
15116;SDS011;7659;51.038;13.786;2023-12-07T07:23:20;37.65;;;23.65;;
15116;SDS011;7659;51.038;13.786;2023-12-07T07:25:45;37.28;;;24.08;;
15116;SDS011;7659;51.038;13.786;2023-12-07T07:28:11;36.28;;;23.50;;
15116;SDS011;7659;51.038;13.786;2023-12-07T07:30:36;34.13;;;23.95;;
15116;SDS011;7659;51.038;13.786;2023-12-07T07:33:02;34.92;;;23.60;;
15116;SDS011;7659;51.038;13.786;2023-12-07T07:35:27;36.17;;;23.73;;
15116;SDS011;7659;51.038;13.786;2023-12-07T07:37:53;34.40;;;24.27;;
15116;SDS011;7659;51.038;13.786;2023-12-07T07:40:19;36.40;;;24.92;;
15116;SDS011;7659;51.038;13.786;2023-12-07T07:42:44;34.90;;;24.15;;
15116;SDS011;7659;51.038;13.786;2023-12-07T07:45:10;32.80;;;23.45;;
15116;SDS011;7659;51.038;13.786;2023-12-07T07:47:36;34.97;;;23.45;;
15116;SDS011;7659;51.038;13.786;2023-12-07T07:50:01;36.25;;;23.00;;
15116;SDS011;7659;51.038;13.786;2023-12-07T07:52:34;33.63;;;24.05;;
15116;SDS011;7659;51.038;13.786;2023-12-07T07:55:00;34.38;;;23.90;;
15116;SDS011;7659;51.038;13.786;2023-12-07T07:57:26;33.15;;;22.45;;
15116;SDS011;7659;51.038;13.786;2023-12-07T07:59:51;32.10;;;22.88;;
15116;SDS011;7659;51.038;13.786;2023-12-07T08:02:17;34.70;;;23.33;;
15116;SDS011;7659;51.038;13.786;2023-12-07T08:04:42;33.58;;;23.65;;
15116;SDS011;7659;51.038;13.786;2023-12-07T08:07:07;32.58;;;22.52;;
15116;SDS011;7659;51.038;13.786;2023-12-07T08:09:33;32.28;;;22.10;;
15116;SDS011;7659;51.038;13.786;2023-12-07T08:11:58;36.22;;;24.30;;
15116;SDS011;7659;51.038;13.786;2023-12-07T08:14:24;36.70;;;23.95;;
15116;SDS011;7659;51.038;13.786;2023-12-07T08:16:49;37.03;;;24.25;;
15116;SDS011;7659;51.038;13.786;2023-12-07T08:19:15;32.67;;;22.15;;
15116;SDS011;7659;51.038;13.786;2023-12-07T08:21:40;30.08;;;21.15;;
15116;SDS011;7659;51.038;13.786;2023-12-07T08:24:06;29.98;;;21.45;;
15116;SDS011;7659;51.038;13.786;2023-12-07T08:26:31;28.45;;;20.83;;
15116;SDS011;7659;51.038;13.786;2023-12-07T08:28:57;28.45;;;20.10;;
15116;SDS011;7659;51.038;13.786;2023-12-07T08:31:23;28.27;;;19.42;;
15116;SDS011;7659;51.038;13.786;2023-12-07T08:33:50;25.52;;;18.85;;
15116;SDS011;7659;51.038;13.786;2023-12-07T08:36:15;27.92;;;19.10;;
15116;SDS011;7659;51.038;13.786;2023-12-07T08:38:41;31.25;;;21.85;;
15116;SDS011;7659;51.038;13.786;2023-12-07T08:41:07;27.17;;;19.38;;
15116;SDS011;7659;51.038;13.786;2023-12-07T08:43:32;25.55;;;19.58;;
15116;SDS011;7659;51.038;13.786;2023-12-07T08:45:58;23.88;;;18.33;;
15116;SDS011;7659;51.038;13.786;2023-12-07T08:48:23;24.08;;;17.17;;
15116;SDS011;7659;51.038;13.786;2023-12-07T08:50:49;23.90;;;17.55;;
15116;SDS011;7659;51.038;13.786;2023-12-07T08:53:14;24.85;;;18.83;;
15116;SDS011;7659;51.038;13.786;2023-12-07T08:55:40;29.50;;;19.30;;
15116;SDS011;7659;51.038;13.786;2023-12-07T08:58:05;26.88;;;19.38;;
15116;SDS011;7659;51.038;13.786;2023-12-07T09:00:31;29.42;;;19.30;;
15116;SDS011;7659;51.038;13.786;2023-12-07T09:02:57;23.75;;;18.25;;
15116;SDS011;7659;51.038;13.786;2023-12-07T09:05:22;24.23;;;18.63;;
15116;SDS011;7659;51.038;13.786;2023-12-07T09:07:48;25.20;;;18.55;;
15116;SDS011;7659;51.038;13.786;2023-12-07T09:10:13;27.85;;;20.60;;
15116;SDS011;7659;51.038;13.786;2023-12-07T09:12:39;26.83;;;20.02;;
15116;SDS011;7659;51.038;13.786;2023-12-07T09:15:05;24.88;;;19.58;;
15116;SDS011;7659;51.038;13.786;2023-12-07T09:17:32;26.17;;;18.75;;
15116;SDS011;7659;51.038;13.786;2023-12-07T09:19:58;27.13;;;20.60;;
15116;SDS011;7659;51.038;13.786;2023-12-07T09:22:23;28.90;;;19.67;;
15116;SDS011;7659;51.038;13.786;2023-12-07T09:24:49;26.35;;;19.70;;
15116;SDS011;7659;51.038;13.786;2023-12-07T09:27:14;27.67;;;19.38;;
15116;SDS011;7659;51.038;13.786;2023-12-07T09:29:40;28.05;;;19.95;;
15116;SDS011;7659;51.038;13.786;2023-12-07T09:32:06;28.63;;;20.67;;
15116;SDS011;7659;51.038;13.786;2023-12-07T09:34:32;32.70;;;22.30;;
15116;SDS011;7659;51.038;13.786;2023-12-07T09:37:07;29.13;;;20.13;;
15116;SDS011;7659;51.038;13.786;2023-12-07T09:39:32;30.67;;;21.35;;
15116;SDS011;7659;51.038;13.786;2023-12-07T09:41:58;29.95;;;20.48;;
15116;SDS011;7659;51.038;13.786;2023-12-07T09:44:23;26.92;;;19.70;;
15116;SDS011;7659;51.038;13.786;2023-12-07T09:46:48;30.13;;;20.85;;
15116;SDS011;7659;51.038;13.786;2023-12-07T09:49:14;27.90;;;20.48;;
15116;SDS011;7659;51.038;13.786;2023-12-07T09:51:40;29.70;;;21.05;;
15116;SDS011;7659;51.038;13.786;2023-12-07T09:54:07;26.10;;;19.88;;
15116;SDS011;7659;51.038;13.786;2023-12-07T09:56:33;25.02;;;18.08;;
15116;SDS011;7659;51.038;13.786;2023-12-07T09:58:58;27.92;;;19.52;;
15116;SDS011;7659;51.038;13.786;2023-12-07T10:01:30;24.88;;;18.55;;
15116;SDS011;7659;51.038;13.786;2023-12-07T10:04:14;27.45;;;19.90;;
15116;SDS011;7659;51.038;13.786;2023-12-07T10:06:43;27.25;;;19.30;;
15116;SDS011;7659;51.038;13.786;2023-12-07T10:09:13;26.30;;;17.95;;
15116;SDS011;7659;51.038;13.786;2023-12-07T10:11:39;27.63;;;19.98;;
15116;SDS011;7659;51.038;13.786;2023-12-07T10:14:07;27.05;;;19.50;;
15116;SDS011;7659;51.038;13.786;2023-12-07T10:16:33;28.52;;;20.48;;
15116;SDS011;7659;51.038;13.786;2023-12-07T10:19:13;24.33;;;18.88;;
15116;SDS011;7659;51.038;13.786;2023-12-07T10:21:39;26.50;;;18.20;;
15116;SDS011;7659;51.038;13.786;2023-12-07T10:24:05;28.42;;;19.38;;
15116;SDS011;7659;51.038;13.786;2023-12-07T10:26:30;25.50;;;18.05;;
15116;SDS011;7659;51.038;13.786;2023-12-07T10:28:56;27.17;;;18.58;;
15116;SDS011;7659;51.038;13.786;2023-12-07T10:31:21;24.80;;;18.95;;
15116;SDS011;7659;51.038;13.786;2023-12-07T10:33:48;30.83;;;19.98;;
15116;SDS011;7659;51.038;13.786;2023-12-07T10:36:13;25.52;;;18.40;;
15116;SDS011;7659;51.038;13.786;2023-12-07T10:38:39;26.83;;;19.20;;
15116;SDS011;7659;51.038;13.786;2023-12-07T10:41:07;28.23;;;19.85;;
15116;SDS011;7659;51.038;13.786;2023-12-07T10:43:36;29.95;;;20.50;;
15116;SDS011;7659;51.038;13.786;2023-12-07T10:46:02;27.95;;;19.88;;
15116;SDS011;7659;51.038;13.786;2023-12-07T10:48:30;28.15;;;19.25;;
15116;SDS011;7659;51.038;13.786;2023-12-07T10:50:57;26.55;;;20.15;;
15116;SDS011;7659;51.038;13.786;2023-12-07T10:53:28;26.10;;;19.52;;
15116;SDS011;7659;51.038;13.786;2023-12-07T10:55:56;28.73;;;19.17;;
15116;SDS011;7659;51.038;13.786;2023-12-07T10:58:22;32.80;;;20.33;;
15116;SDS011;7659;51.038;13.786;2023-12-07T11:00:51;29.02;;;20.05;;
15116;SDS011;7659;51.038;13.786;2023-12-07T11:03:17;28.15;;;20.85;;
15116;SDS011;7659;51.038;13.786;2023-12-07T11:05:46;26.08;;;18.60;;
15116;SDS011;7659;51.038;13.786;2023-12-07T11:08:21;30.33;;;20.52;;
15116;SDS011;7659;51.038;13.786;2023-12-07T11:15:39;27.50;;;19.55;;
15116;SDS011;7659;51.038;13.786;2023-12-07T11:18:04;28.83;;;20.20;;
15116;SDS011;7659;51.038;13.786;2023-12-07T11:20:42;31.25;;;21.08;;
15116;SDS011;7659;51.038;13.786;2023-12-07T11:23:09;28.17;;;19.92;;
15116;SDS011;7659;51.038;13.786;2023-12-07T11:25:35;29.65;;;20.83;;
15116;SDS011;7659;51.038;13.786;2023-12-07T11:28:01;33.40;;;20.55;;
15116;SDS011;7659;51.038;13.786;2023-12-07T11:30:28;30.20;;;20.38;;
15116;SDS011;7659;51.038;13.786;2023-12-07T11:32:55;32.45;;;22.25;;
15116;SDS011;7659;51.038;13.786;2023-12-07T11:35:21;30.77;;;21.63;;
15116;SDS011;7659;51.038;13.786;2023-12-07T11:38:05;27.33;;;19.83;;
15116;SDS011;7659;51.038;13.786;2023-12-07T11:40:49;29.02;;;20.00;;
15116;SDS011;7659;51.038;13.786;2023-12-07T11:43:18;19.40;;;14.70;;
15116;SDS011;7659;51.038;13.786;2023-12-07T11:45:55;27.48;;;19.60;;
15116;SDS011;7659;51.038;13.786;2023-12-07T11:48:21;27.77;;;20.58;;
15116;SDS011;7659;51.038;13.786;2023-12-07T11:53:29;28.27;;;18.52;;
15116;SDS011;7659;51.038;13.786;2023-12-07T11:55:58;27.27;;;18.73;;
15116;SDS011;7659;51.038;13.786;2023-12-07T11:58:24;27.40;;;20.58;;
15116;SDS011;7659;51.038;13.786;2023-12-07T12:00:50;28.65;;;20.25;;
15116;SDS011;7659;51.038;13.786;2023-12-07T12:03:16;26.92;;;19.75;;
15116;SDS011;7659;51.038;13.786;2023-12-07T12:05:42;26.15;;;19.52;;
15116;SDS011;7659;51.038;13.786;2023-12-07T12:08:08;25.80;;;19.48;;
15116;SDS011;7659;51.038;13.786;2023-12-07T12:10:33;25.55;;;19.98;;
15116;SDS011;7659;51.038;13.786;2023-12-07T12:13:02;30.15;;;20.17;;
15116;SDS011;7659;51.038;13.786;2023-12-07T12:15:30;30.20;;;20.88;;
15116;SDS011;7659;51.038;13.786;2023-12-07T12:17:56;31.85;;;19.63;;
15116;SDS011;7659;51.038;13.786;2023-12-07T12:20:22;25.38;;;19.70;;
15116;SDS011;7659;51.038;13.786;2023-12-07T12:22:47;25.38;;;19.88;;
15116;SDS011;7659;51.038;13.786;2023-12-07T12:25:14;29.77;;;19.17;;
15116;SDS011;7659;51.038;13.786;2023-12-07T12:27:39;30.67;;;20.88;;
15116;SDS011;7659;51.038;13.786;2023-12-07T12:30:05;28.60;;;20.60;;
15116;SDS011;7659;51.038;13.786;2023-12-07T12:32:52;30.02;;;21.15;;
15116;SDS011;7659;51.038;13.786;2023-12-07T12:35:17;26.88;;;20.17;;
15116;SDS011;7659;51.038;13.786;2023-12-07T12:37:46;30.02;;;21.25;;
15116;SDS011;7659;51.038;13.786;2023-12-07T12:40:12;28.70;;;21.02;;
15116;SDS011;7659;51.038;13.786;2023-12-07T12:42:42;29.67;;;21.92;;
15116;SDS011;7659;51.038;13.786;2023-12-07T12:45:08;31.75;;;20.60;;
15116;SDS011;7659;51.038;13.786;2023-12-07T12:47:33;29.40;;;20.50;;
15116;SDS011;7659;51.038;13.786;2023-12-07T12:50:00;32.92;;;20.95;;
15116;SDS011;7659;51.038;13.786;2023-12-07T12:52:26;27.80;;;20.50;;
15116;SDS011;7659;51.038;13.786;2023-12-07T12:54:55;28.52;;;21.20;;
15116;SDS011;7659;51.038;13.786;2023-12-07T12:57:20;29.20;;;21.63;;
15116;SDS011;7659;51.038;13.786;2023-12-07T12:59:46;28.67;;;20.98;;
15116;SDS011;7659;51.038;13.786;2023-12-07T13:02:13;27.05;;;20.05;;
15116;SDS011;7659;51.038;13.786;2023-12-07T13:04:38;30.13;;;21.77;;
15116;SDS011;7659;51.038;13.786;2023-12-07T13:07:05;29.52;;;21.52;;
15116;SDS011;7659;51.038;13.786;2023-12-07T13:09:31;29.98;;;21.42;;
15116;SDS011;7659;51.038;13.786;2023-12-07T13:11:58;28.50;;;20.92;;
15116;SDS011;7659;51.038;13.786;2023-12-07T13:14:24;29.80;;;22.40;;
15116;SDS011;7659;51.038;13.786;2023-12-07T13:16:49;32.38;;;21.30;;
15116;SDS011;7659;51.038;13.786;2023-12-07T13:19:15;30.25;;;22.20;;
15116;SDS011;7659;51.038;13.786;2023-12-07T13:21:41;31.52;;;21.88;;
15116;SDS011;7659;51.038;13.786;2023-12-07T13:24:06;30.92;;;23.02;;
15116;SDS011;7659;51.038;13.786;2023-12-07T13:26:40;35.33;;;23.63;;
15116;SDS011;7659;51.038;13.786;2023-12-07T13:29:05;33.13;;;22.98;;
15116;SDS011;7659;51.038;13.786;2023-12-07T13:31:33;34.90;;;23.73;;
15116;SDS011;7659;51.038;13.786;2023-12-07T13:33:58;36.05;;;24.48;;
15116;SDS011;7659;51.038;13.786;2023-12-07T13:36:24;31.27;;;22.98;;
15116;SDS011;7659;51.038;13.786;2023-12-07T13:38:51;35.42;;;23.60;;
15116;SDS011;7659;51.038;13.786;2023-12-07T13:41:17;32.08;;;23.00;;
15116;SDS011;7659;51.038;13.786;2023-12-07T13:43:42;37.35;;;23.35;;
15116;SDS011;7659;51.038;13.786;2023-12-07T13:46:08;35.80;;;24.13;;
15116;SDS011;7659;51.038;13.786;2023-12-07T13:48:34;35.28;;;23.42;;
15116;SDS011;7659;51.038;13.786;2023-12-07T13:50:59;36.35;;;24.27;;
15116;SDS011;7659;51.038;13.786;2023-12-07T13:53:25;34.10;;;23.30;;
15116;SDS011;7659;51.038;13.786;2023-12-07T13:55:50;34.33;;;24.42;;
15116;SDS011;7659;51.038;13.786;2023-12-07T13:58:16;30.42;;;22.90;;
15116;SDS011;7659;51.038;13.786;2023-12-07T14:00:42;33.33;;;24.02;;
15116;SDS011;7659;51.038;13.786;2023-12-07T14:03:11;34.65;;;23.17;;
15116;SDS011;7659;51.038;13.786;2023-12-07T14:05:37;33.38;;;24.23;;
15116;SDS011;7659;51.038;13.786;2023-12-07T14:08:03;32.10;;;23.40;;
15116;SDS011;7659;51.038;13.786;2023-12-07T14:10:28;31.80;;;22.73;;
15116;SDS011;7659;51.038;13.786;2023-12-07T14:12:54;32.17;;;22.45;;
15116;SDS011;7659;51.038;13.786;2023-12-07T14:15:19;34.75;;;25.00;;
15116;SDS011;7659;51.038;13.786;2023-12-07T14:17:45;30.52;;;22.50;;
15116;SDS011;7659;51.038;13.786;2023-12-07T14:20:10;31.50;;;21.65;;
15116;SDS011;7659;51.038;13.786;2023-12-07T14:22:37;33.50;;;21.50;;